createdAt,value
2018-06-05T00:01:53.303Z,18.90
2018-06-05T00:04:22.410Z,18.80
2018-06-05T00:06:51.439Z,18.90
2018-06-05T00:09:20.486Z,18.90
2018-06-05T00:11:49.539Z,18.80
2018-06-05T00:14:18.569Z,18.60
2018-06-05T00:16:47.559Z,18.60
2018-06-05T00:19:16.589Z,18.60
2018-06-05T00:21:45.591Z,18.50
2018-06-05T00:24:14.648Z,18.50
2018-06-05T00:26:43.651Z,18.50
2018-06-05T00:29:12.696Z,18.50
2018-06-05T00:31:41.692Z,18.50
2018-06-05T00:34:10.728Z,18.40
2018-06-05T00:36:39.807Z,18.30
2018-06-05T00:39:08.803Z,18.20
2018-06-05T00:41:37.832Z,18.10
2018-06-05T00:44:06.891Z,18.00
2018-06-05T00:46:35.923Z,18.10
2018-06-05T00:49:05.017Z,18.10
2018-06-05T00:51:45.241Z,18.10
2018-06-05T00:54:14.288Z,18.00
2018-06-05T00:59:11.959Z,18.10
2018-06-05T01:01:41.023Z,18.10
2018-06-05T01:04:10.011Z,18.10
2018-06-05T01:06:39.074Z,18.10
2018-06-05T01:09:08.366Z,18.20
2018-06-05T01:11:37.415Z,18.10
2018-06-05T01:14:06.439Z,18.10
2018-06-05T01:19:02.568Z,18.20
2018-06-05T01:21:31.596Z,18.10
2018-06-05T01:24:00.711Z,18.20
2018-06-05T01:26:29.711Z,18.20
2018-06-05T01:28:58.759Z,18.20
2018-06-05T01:31:27.797Z,18.20
2018-06-05T01:33:56.838Z,18.20
2018-06-05T01:36:25.858Z,18.10
2018-06-05T01:38:54.879Z,18.10
2018-06-05T01:41:23.945Z,18.00
2018-06-05T01:43:52.954Z,17.80
2018-06-05T01:46:22.071Z,17.80
2018-06-05T01:48:51.051Z,17.80
2018-06-05T01:51:20.134Z,17.80
2018-06-05T01:53:49.139Z,17.70
2018-06-05T01:56:18.197Z,17.60
2018-06-05T02:01:16.100Z,17.60
2018-06-05T02:03:45.143Z,17.60
2018-06-05T02:06:14.225Z,17.50
2018-06-05T02:08:43.307Z,17.40
2018-06-05T02:11:12.339Z,17.40
2018-06-05T02:13:41.404Z,17.40
2018-06-05T02:16:10.483Z,17.40
2018-06-05T02:18:39.503Z,17.40
2018-06-05T02:21:08.507Z,17.30
2018-06-05T02:23:37.669Z,17.40
2018-06-05T02:26:06.800Z,17.40
2018-06-05T02:28:35.866Z,17.40
2018-06-05T02:31:04.883Z,17.40
2018-06-05T02:33:33.923Z,17.30
2018-06-05T02:36:03.037Z,17.30
2018-06-05T02:41:07.515Z,17.40
2018-06-05T02:43:36.568Z,17.40
2018-06-05T02:46:05.665Z,17.40
2018-06-05T02:48:34.819Z,17.40
2018-06-05T02:51:03.864Z,17.40
2018-06-05T02:53:32.884Z,17.40
2018-06-05T02:56:01.936Z,17.30
2018-06-05T02:58:30.973Z,17.20
2018-06-05T03:00:59.971Z,17.30
2018-06-05T03:03:28.951Z,17.20
2018-06-05T03:05:58.021Z,17.20
2018-06-05T03:08:27.076Z,17.20
2018-06-05T03:10:56.075Z,17.20
2018-06-05T03:13:25.111Z,17.20
2018-06-05T03:15:54.126Z,17.20
2018-06-05T03:18:23.129Z,17.20
2018-06-05T03:20:52.195Z,17.20
2018-06-05T03:23:21.186Z,17.20
2018-06-05T03:25:50.205Z,17.20
2018-06-05T03:28:19.203Z,17.20
2018-06-05T03:30:48.207Z,17.10
2018-06-05T03:33:17.466Z,17.00
2018-06-05T03:35:46.563Z,17.00
2018-06-05T03:38:15.636Z,16.80
2018-06-05T03:40:44.812Z,16.80
2018-06-05T03:43:13.919Z,16.90
2018-06-05T03:45:43.031Z,16.90
2018-06-05T03:48:12.047Z,16.90
2018-06-05T03:50:41.115Z,17.00
2018-06-05T03:53:10.170Z,17.00
2018-06-05T03:55:39.223Z,17.00
2018-06-05T03:58:08.323Z,17.00
2018-06-05T04:00:37.386Z,17.10
2018-06-05T04:03:06.396Z,17.20
2018-06-05T04:05:35.583Z,17.10
2018-06-05T04:10:39.756Z,17.10
2018-06-05T04:13:08.767Z,17.10
2018-06-05T04:15:37.905Z,17.20
2018-06-05T04:18:06.925Z,17.20
2018-06-05T04:20:35.963Z,17.30
2018-06-05T04:23:05.007Z,17.30
2018-06-05T04:25:34.027Z,17.20
2018-06-05T04:28:03.043Z,17.20
2018-06-05T04:30:32.153Z,17.20
2018-06-05T04:33:01.210Z,17.30
2018-06-05T04:35:30.287Z,17.30
2018-06-05T04:37:59.355Z,17.30
2018-06-05T04:40:28.378Z,17.50
2018-06-05T04:42:57.444Z,17.40
2018-06-05T04:45:26.548Z,17.40
2018-06-05T04:47:55.900Z,17.50
2018-06-05T04:50:25.020Z,17.50
2018-06-05T04:52:54.099Z,17.60
2018-06-05T04:55:23.112Z,17.70
2018-06-05T04:57:52.123Z,17.70
2018-06-05T05:00:22.455Z,17.80
2018-06-05T05:02:51.546Z,17.90
2018-06-05T05:05:20.673Z,18.00
2018-06-05T05:07:49.946Z,17.90
2018-06-05T05:10:19.019Z,17.90
2018-06-05T05:12:48.026Z,18.00
2018-06-05T05:15:17.099Z,18.10
2018-06-05T05:17:46.114Z,18.30
2018-06-05T05:20:15.312Z,18.40
2018-06-05T05:22:44.959Z,18.50
2018-06-05T05:25:13.972Z,18.60
2018-06-05T05:27:43.192Z,18.60
2018-06-05T05:30:12.210Z,18.60
2018-06-05T05:32:41.219Z,18.70
2018-06-05T05:35:10.231Z,18.80
2018-06-05T05:37:39.267Z,18.80
2018-06-05T05:40:08.276Z,18.80
2018-06-05T05:42:37.418Z,19.00
2018-06-05T05:45:06.697Z,19.20
2018-06-05T05:47:35.720Z,19.30
2018-06-05T05:50:04.731Z,19.40
2018-06-05T05:52:33.756Z,19.60
2018-06-05T05:55:02.787Z,19.60
2018-06-05T05:57:31.780Z,19.70
2018-06-05T06:00:00.807Z,19.90
2018-06-05T06:02:29.789Z,19.90
2018-06-05T06:04:58.877Z,20.00
2018-06-05T06:07:27.868Z,20.10
2018-06-05T06:09:56.895Z,20.10
2018-06-05T06:12:25.975Z,20.20
2018-06-05T06:14:55.028Z,20.30
2018-06-05T06:17:24.233Z,20.20
2018-06-05T06:19:53.231Z,20.30
2018-06-05T06:22:22.277Z,20.40
2018-06-05T06:24:51.303Z,20.60
2018-06-05T06:27:20.295Z,20.80
2018-06-05T06:29:49.302Z,20.80
2018-06-05T06:32:18.530Z,21.30
2018-06-05T06:34:47.531Z,22.30
2018-06-05T06:37:16.532Z,23.10
2018-06-05T06:39:45.592Z,24.00
2018-06-05T06:42:14.596Z,24.60
2018-06-05T06:44:43.600Z,25.40
2018-06-05T06:47:12.620Z,24.90
2018-06-05T06:49:41.632Z,25.30
2018-06-05T06:52:10.695Z,25.30
2018-06-05T06:54:39.957Z,25.60
2018-06-05T06:57:08.963Z,26.10
2018-06-05T06:59:37.976Z,27.00
2018-06-05T07:02:07.025Z,27.10
2018-06-05T07:04:36.083Z,27.30
2018-06-05T07:07:05.079Z,26.20
2018-06-05T07:09:34.114Z,25.30
2018-06-05T07:12:03.109Z,25.60
2018-06-05T07:14:32.112Z,26.00
2018-06-05T07:17:01.159Z,26.10
2018-06-05T07:19:30.184Z,26.50
2018-06-05T07:21:59.196Z,27.80
2018-06-05T07:24:28.253Z,27.40
2018-06-05T07:26:57.610Z,27.40
2018-06-05T07:29:26.622Z,26.50
2018-06-05T07:31:56.068Z,27.80
2018-06-05T07:34:25.103Z,28.50
2018-06-05T07:36:54.205Z,27.40
2018-06-05T07:39:23.224Z,27.60
2018-06-05T07:41:52.239Z,27.80
2018-06-05T07:44:21.298Z,27.50
2018-06-05T07:46:50.334Z,29.50
2018-06-05T07:49:19.372Z,28.80
2018-06-05T07:51:48.444Z,28.00
2018-06-05T07:54:17.577Z,27.50
2018-06-05T07:56:46.636Z,28.20
2018-06-05T07:59:15.644Z,28.00
2018-06-05T08:01:44.739Z,28.30
2018-06-05T08:04:13.789Z,29.20
2018-06-05T08:06:42.838Z,27.80
2018-06-05T08:09:11.856Z,27.00
2018-06-05T08:11:40.864Z,27.40
2018-06-05T08:14:09.910Z,26.70
2018-06-05T08:16:39.036Z,27.80
2018-06-05T08:19:08.150Z,28.30
2018-06-05T08:21:37.242Z,29.10
2018-06-05T08:24:06.304Z,30.20
2018-06-05T08:26:53.538Z,28.20
2018-06-05T08:29:22.859Z,27.30
2018-06-05T08:31:51.871Z,28.00
2018-06-05T08:34:20.953Z,27.60
2018-06-05T08:36:50.019Z,28.40
2018-06-05T08:39:19.027Z,28.90
2018-06-05T08:41:48.056Z,29.60
2018-06-05T08:44:17.062Z,28.90
2018-06-05T08:46:46.135Z,29.60
2018-06-05T08:49:15.171Z,30.40
2018-06-05T08:51:44.295Z,31.00
2018-06-05T08:54:13.367Z,29.90
2018-06-05T08:56:42.340Z,30.00
2018-06-05T08:59:11.371Z,31.20
2018-06-05T09:01:40.524Z,32.00
2018-06-05T09:04:09.520Z,30.10
2018-06-05T09:06:38.832Z,31.00
2018-06-05T09:09:08.342Z,30.20
2018-06-05T09:11:37.366Z,29.60
2018-06-05T09:14:06.432Z,29.30
2018-06-05T09:16:35.451Z,28.80
2018-06-05T09:19:04.509Z,28.80
2018-06-05T09:21:33.629Z,27.90
2018-06-05T09:24:02.727Z,27.40
2018-06-05T09:26:31.726Z,27.30
2018-06-05T09:29:00.802Z,27.00
2018-06-05T09:31:29.773Z,26.60
2018-06-05T09:33:58.807Z,25.60
2018-06-05T09:36:27.858Z,26.00
2018-06-05T09:38:56.903Z,26.10
2018-06-05T09:41:26.044Z,26.00
2018-06-05T09:43:55.071Z,26.00
2018-06-05T09:46:24.119Z,26.10
2018-06-05T09:48:53.319Z,25.90
2018-06-05T09:51:22.380Z,26.20
2018-06-05T09:53:51.391Z,25.90
2018-06-05T09:56:20.430Z,25.60
2018-06-05T09:58:49.455Z,26.00
2018-06-05T10:01:18.528Z,26.00
2018-06-05T10:03:47.584Z,26.10
2018-06-05T10:06:16.652Z,25.80
2018-06-05T10:08:45.683Z,26.10
2018-06-05T10:11:14.762Z,26.10
2018-06-05T10:13:43.752Z,26.40
2018-06-05T10:16:12.819Z,26.60
2018-06-05T10:18:41.852Z,26.60
2018-06-05T10:21:10.862Z,26.40
2018-06-05T10:23:39.983Z,26.40
2018-06-05T10:26:09.039Z,26.40
2018-06-05T10:28:38.093Z,26.60
2018-06-05T10:31:07.121Z,26.70
2018-06-05T10:33:36.124Z,26.90
2018-06-05T10:36:05.151Z,26.80
2018-06-05T10:38:34.251Z,26.40
2018-06-05T10:41:03.293Z,26.40
2018-06-05T10:43:32.302Z,26.20
2018-06-05T10:46:01.355Z,25.90
2018-06-05T10:48:30.362Z,26.10
2018-06-05T10:50:59.420Z,25.80
2018-06-05T10:53:28.411Z,25.80
2018-06-05T10:55:57.424Z,26.10
2018-06-05T10:58:26.456Z,26.40
2018-06-05T11:00:55.467Z,26.50
2018-06-05T11:03:24.553Z,26.50
2018-06-05T11:05:53.583Z,26.60
2018-06-05T11:08:22.627Z,26.40
2018-06-05T11:10:51.684Z,26.20
2018-06-05T11:13:20.734Z,26.30
2018-06-05T11:15:49.749Z,26.40
2018-06-05T11:18:18.814Z,26.40
2018-06-05T11:20:47.847Z,26.50
2018-06-05T11:23:16.956Z,26.40
2018-06-05T11:25:45.942Z,26.70
2018-06-05T11:28:15.045Z,26.40
2018-06-05T11:30:44.979Z,26.40
2018-06-05T11:33:14.043Z,26.40
2018-06-05T11:35:43.253Z,26.50
2018-06-05T11:38:12.306Z,26.30
2018-06-05T11:40:41.402Z,26.50
2018-06-05T11:43:10.571Z,26.70
2018-06-05T11:45:39.654Z,26.40
2018-06-05T11:48:08.702Z,26.60
2018-06-05T11:50:37.740Z,26.50
2018-06-05T11:53:06.809Z,26.40
2018-06-05T11:55:35.844Z,26.70
2018-06-05T11:58:04.927Z,26.70
2018-06-05T12:00:33.951Z,26.90
2018-06-05T12:03:03.070Z,26.70
2018-06-05T12:05:32.156Z,26.80
2018-06-05T12:08:01.217Z,26.40
2018-06-05T12:10:30.310Z,26.20
2018-06-05T12:13:00.030Z,26.60
2018-06-05T12:15:29.093Z,26.80
2018-06-05T12:17:58.147Z,26.60
2018-06-05T12:20:27.226Z,26.50
2018-06-05T12:22:56.335Z,27.30
2018-06-05T12:25:25.366Z,28.00
2018-06-05T12:27:54.449Z,28.00
2018-06-05T12:30:23.513Z,28.30
2018-06-05T12:32:52.582Z,27.70
2018-06-05T12:35:21.649Z,27.80
2018-06-05T12:37:50.707Z,27.70
2018-06-05T12:40:19.752Z,27.60
2018-06-05T12:42:48.827Z,27.10
2018-06-05T12:45:18.877Z,27.00
2018-06-05T12:47:47.930Z,27.30
2018-06-05T12:50:16.974Z,27.60
2018-06-05T12:52:46.047Z,27.40
2018-06-05T12:55:15.038Z,27.40
2018-06-05T12:57:44.143Z,27.10
2018-06-05T13:00:13.102Z,26.80
2018-06-05T13:02:42.167Z,26.90
2018-06-05T13:07:49.354Z,27.20
2018-06-05T13:10:18.354Z,27.30
2018-06-05T13:12:47.365Z,27.50
2018-06-05T13:15:16.415Z,28.10
2018-06-05T13:17:45.423Z,28.70
2018-06-05T13:20:14.398Z,29.50
2018-06-05T13:22:43.528Z,29.80
2018-06-05T13:25:12.462Z,29.70
2018-06-05T13:27:41.501Z,30.00
2018-06-05T13:30:10.661Z,30.20
2018-06-05T13:32:39.659Z,31.90
2018-06-05T13:35:08.656Z,31.70
2018-06-05T13:37:37.651Z,31.40
2018-06-05T13:40:06.627Z,29.80
2018-06-05T13:42:35.583Z,30.10
2018-06-05T13:45:04.830Z,30.30
2018-06-05T13:47:33.822Z,30.70
2018-06-05T13:50:02.854Z,32.50
2018-06-05T13:52:31.850Z,32.20
2018-06-05T13:55:00.790Z,32.40
2018-06-05T13:57:29.938Z,33.20
2018-06-05T13:59:58.898Z,32.00
2018-06-05T14:02:27.857Z,33.30
2018-06-05T14:04:56.810Z,33.30
2018-06-05T14:07:25.807Z,34.60
2018-06-05T14:09:54.795Z,33.80
2018-06-05T14:12:23.749Z,33.80
2018-06-05T14:14:52.746Z,33.50
2018-06-05T14:17:21.847Z,32.60
2018-06-05T14:19:50.875Z,33.30
2018-06-05T14:22:19.910Z,32.10
2018-06-05T14:24:48.914Z,32.60
2018-06-05T14:27:17.892Z,32.50
2018-06-05T14:29:46.890Z,33.00
2018-06-05T14:32:15.846Z,31.50
2018-06-05T14:34:44.946Z,31.70
2018-06-05T14:37:13.983Z,32.00
2018-06-05T14:39:43.050Z,31.80
2018-06-05T14:42:12.021Z,33.80
2018-06-05T14:44:41.015Z,34.20
2018-06-05T14:47:09.987Z,34.70
2018-06-05T14:49:38.995Z,33.30
2018-06-05T14:52:08.015Z,34.00
2018-06-05T14:54:37.079Z,33.70
2018-06-05T14:57:06.295Z,34.40
2018-06-05T14:59:35.291Z,34.40
2018-06-05T15:02:04.286Z,34.30
2018-06-05T15:04:33.332Z,32.80
2018-06-05T15:07:02.390Z,33.80
2018-06-05T15:09:31.471Z,33.40
2018-06-05T15:12:00.439Z,33.20
2018-06-05T15:14:29.505Z,33.80
2018-06-05T15:16:58.658Z,34.90
2018-06-05T15:19:27.606Z,34.40
2018-06-05T15:21:56.579Z,34.50
2018-06-05T15:24:25.894Z,33.30
2018-06-05T15:26:54.867Z,32.90
2018-06-05T15:29:23.866Z,32.80
2018-06-05T15:31:52.855Z,33.10
2018-06-05T15:34:21.867Z,32.70
2018-06-05T15:36:50.854Z,33.00
2018-06-05T15:39:19.872Z,33.30
2018-06-05T15:41:48.842Z,33.50
2018-06-05T15:44:17.846Z,32.50
2018-06-05T15:46:46.834Z,32.50
2018-06-05T15:49:15.818Z,31.80
2018-06-05T15:51:44.790Z,30.70
2018-06-05T15:54:13.900Z,31.60
2018-06-05T15:56:42.855Z,31.70
2018-06-05T15:59:11.982Z,32.00
2018-06-05T16:01:41.026Z,30.60
2018-06-05T16:04:10.034Z,31.70
2018-06-05T16:06:39.079Z,31.90
2018-06-05T16:09:09.303Z,31.20
2018-06-05T16:11:38.470Z,30.30
2018-06-05T16:14:07.491Z,30.80
2018-06-05T16:16:36.459Z,30.30
2018-06-05T16:19:05.491Z,30.30
2018-06-05T16:21:34.453Z,30.40
2018-06-05T16:24:03.479Z,30.80
2018-06-05T16:26:32.443Z,30.60
2018-06-05T16:29:01.467Z,29.00
2018-06-05T16:31:30.439Z,28.80
2018-06-05T16:33:59.416Z,29.50
2018-06-05T16:36:28.399Z,29.60
2018-06-05T16:38:57.372Z,29.40
2018-06-05T16:41:26.411Z,28.70
2018-06-05T16:43:55.396Z,28.30
2018-06-05T16:46:24.446Z,28.40
2018-06-05T16:48:53.466Z,27.70
2018-06-05T16:51:22.483Z,28.00
2018-06-05T16:53:51.450Z,28.10
2018-06-05T16:58:55.619Z,27.90
2018-06-05T17:01:24.722Z,26.70
2018-06-05T17:03:53.730Z,26.60
2018-06-05T17:06:22.778Z,26.60
2018-06-05T17:08:51.858Z,26.50
2018-06-05T17:11:20.870Z,26.30
2018-06-05T17:13:49.945Z,26.40
2018-06-05T17:16:18.950Z,26.20
2018-06-05T17:18:47.962Z,26.10
2018-06-05T17:21:16.955Z,26.10
2018-06-05T17:23:45.963Z,25.90
2018-06-05T17:26:15.039Z,25.60
2018-06-05T17:28:44.055Z,25.00
2018-06-05T17:31:13.036Z,25.20
2018-06-05T17:33:42.019Z,25.30
2018-06-05T17:36:10.978Z,25.10
2018-06-05T17:41:08.515Z,24.70
2018-06-05T17:43:37.471Z,24.60
2018-06-05T17:46:06.455Z,24.60
2018-06-05T17:48:35.402Z,24.40
2018-06-05T17:51:04.577Z,24.60
2018-06-05T17:53:33.547Z,24.50
2018-06-05T17:56:02.601Z,24.40
2018-06-05T17:58:31.599Z,24.20
2018-06-05T18:01:00.617Z,24.30
2018-06-05T18:03:29.570Z,24.10
2018-06-05T18:05:58.546Z,23.90
2018-06-05T18:08:27.655Z,23.90
2018-06-05T18:10:56.726Z,23.80
2018-06-05T18:13:25.686Z,23.70
2018-06-05T18:15:54.820Z,23.70
2018-06-05T18:18:23.922Z,23.60
2018-06-05T18:20:52.906Z,23.40
2018-06-05T18:23:21.906Z,23.40
2018-06-05T18:25:50.987Z,23.30
2018-06-05T18:28:19.969Z,23.10
2018-06-05T18:30:48.951Z,23.00
2018-06-05T18:33:17.912Z,23.10
2018-06-05T18:35:46.898Z,22.90
2018-06-05T18:38:15.919Z,22.90
2018-06-05T18:40:45.808Z,23.00
2018-06-05T18:43:14.797Z,22.80
2018-06-05T18:45:43.751Z,22.70
2018-06-05T18:48:12.785Z,22.70
2018-06-05T18:50:41.798Z,22.60
2018-06-05T18:53:10.777Z,22.60
2018-06-05T18:55:39.816Z,22.40
2018-06-05T18:58:08.761Z,22.40
2018-06-05T19:00:37.790Z,22.30
2018-06-05T19:03:06.812Z,22.20
2018-06-05T19:05:35.816Z,22.20
2018-06-05T19:08:05.055Z,22.00
2018-06-05T19:10:34.006Z,22.00
2018-06-05T19:13:03.014Z,22.00
2018-06-05T19:15:32.179Z,21.80
2018-06-05T19:18:01.340Z,21.70
2018-06-05T19:20:30.345Z,21.60
2018-06-05T19:22:59.323Z,21.60
2018-06-05T19:25:28.455Z,21.60
2018-06-05T19:27:57.655Z,21.50
2018-06-05T19:30:26.704Z,21.30
2018-06-05T19:32:55.738Z,21.20
2018-06-05T19:35:24.995Z,21.10
2018-06-05T19:37:54.320Z,21.00
2018-06-05T19:40:24.107Z,21.00
2018-06-05T19:42:53.110Z,20.90
2018-06-05T19:45:22.105Z,21.00
2018-06-05T19:47:51.230Z,20.80
2018-06-05T19:50:20.278Z,20.80
2018-06-05T19:52:49.270Z,20.70
2018-06-05T19:55:18.326Z,20.70
2018-06-05T19:57:47.512Z,20.60
2018-06-05T20:00:16.466Z,20.70
2018-06-05T20:02:45.474Z,20.70
2018-06-05T20:05:15.765Z,20.70
2018-06-05T20:07:45.068Z,20.70
2018-06-05T20:10:14.147Z,20.60
2018-06-05T20:12:43.146Z,20.50
2018-06-05T20:15:12.330Z,20.50
2018-06-05T20:17:41.342Z,20.40
2018-06-05T20:20:11.550Z,20.40
2018-06-05T20:22:40.561Z,20.20
2018-06-05T20:25:09.526Z,20.10
2018-06-05T20:27:39.831Z,20.10
2018-06-05T20:30:08.928Z,20.10
2018-06-05T20:32:37.965Z,20.10
2018-06-05T20:35:06.956Z,20.00
2018-06-05T20:37:35.934Z,20.00
2018-06-05T20:40:04.966Z,20.00
2018-06-05T20:42:33.962Z,19.90
2018-06-05T20:45:03.079Z,19.90
2018-06-05T20:47:32.102Z,19.80
2018-06-05T20:50:01.071Z,19.80
2018-06-05T20:54:59.108Z,19.70
2018-06-05T20:57:28.206Z,19.60
2018-06-05T20:59:57.202Z,19.60
2018-06-05T21:02:26.154Z,19.50
2018-06-05T21:04:55.187Z,19.50
2018-06-05T21:07:24.139Z,19.50
2018-06-05T21:09:53.127Z,19.40
2018-06-05T21:12:22.094Z,19.40
2018-06-05T21:14:51.062Z,19.40
2018-06-05T21:17:20.010Z,19.40
2018-06-05T21:19:49.009Z,19.40
2018-06-05T21:22:18.056Z,19.40
2018-06-05T21:24:47.130Z,19.30
2018-06-05T21:27:16.155Z,19.30
2018-06-05T21:29:45.130Z,19.30
2018-06-05T21:32:14.130Z,19.30
2018-06-05T21:34:43.162Z,19.30
2018-06-05T21:37:12.173Z,19.30
2018-06-05T21:39:41.074Z,19.30
2018-06-05T21:42:10.087Z,19.20
2018-06-05T21:44:39.042Z,19.10
2018-06-05T21:47:08.085Z,19.00
2018-06-05T21:49:37.038Z,18.90
2018-06-05T21:52:06.102Z,18.70
2018-06-05T21:54:35.128Z,18.70
2018-06-05T21:57:04.103Z,18.70
2018-06-05T21:59:33.060Z,18.80
2018-06-05T22:02:03.291Z,18.70
2018-06-05T22:04:32.282Z,18.70
2018-06-05T22:07:01.399Z,18.70
2018-06-05T22:09:30.405Z,18.60
2018-06-05T22:11:59.470Z,18.50
2018-06-05T22:14:28.501Z,18.40
2018-06-05T22:16:57.507Z,18.30
2018-06-05T22:19:26.461Z,18.30
2018-06-05T22:21:55.458Z,18.30
2018-06-05T22:24:24.435Z,18.30
2018-06-05T22:26:53.459Z,18.40
2018-06-05T22:29:22.427Z,18.30
2018-06-05T22:31:51.433Z,18.40
2018-06-05T22:34:20.449Z,18.40
2018-06-05T22:36:49.439Z,18.30
2018-06-05T22:39:18.446Z,18.20
2018-06-05T22:41:47.442Z,18.00
2018-06-05T22:44:16.426Z,18.00
2018-06-05T22:46:45.447Z,17.90
2018-06-05T22:49:14.474Z,17.80
2018-06-05T22:51:43.429Z,17.80
2018-06-05T22:54:12.455Z,17.80
2018-06-05T22:56:41.450Z,17.90
2018-06-05T22:59:10.443Z,17.80
2018-06-05T23:01:39.421Z,17.80
2018-06-05T23:04:08.379Z,17.70
2018-06-05T23:06:37.390Z,17.60
2018-06-05T23:09:06.965Z,17.50
2018-06-05T23:11:36.078Z,17.30
2018-06-05T23:14:05.047Z,17.20
2018-06-05T23:16:34.194Z,17.20
2018-06-05T23:19:03.144Z,17.20
2018-06-05T23:21:32.159Z,17.10
2018-06-05T23:24:01.110Z,17.20
2018-06-05T23:26:30.124Z,17.30
2018-06-05T23:28:59.182Z,17.20
2018-06-05T23:31:28.213Z,17.30
2018-06-05T23:33:57.182Z,17.30
2018-06-05T23:36:26.158Z,17.20
2018-06-05T23:38:55.297Z,17.10
2018-06-05T23:41:24.309Z,17.10
2018-06-05T23:43:53.283Z,17.20
2018-06-05T23:46:22.271Z,17.10
2018-06-05T23:48:51.246Z,17.20
2018-06-05T23:51:20.211Z,17.20
2018-06-05T23:53:49.211Z,17.10
2018-06-05T23:56:18.203Z,17.10
2018-06-05T23:58:47.227Z,16.90
